sensor_id;sensor_type;location;lat;lon;timestamp;P1;durP1;ratioP1;P2;durP2;ratioP2
39264;SDS011;42646;51.910;7.724;2022-12-07T00:01:41;16.92;;;12.35;;
39264;SDS011;42646;51.910;7.724;2022-12-07T00:04:12;15.10;;;12.00;;
39264;SDS011;42646;51.910;7.724;2022-12-07T00:06:42;14.23;;;11.70;;
39264;SDS011;42646;51.910;7.724;2022-12-07T00:09:12;14.23;;;11.20;;
39264;SDS011;42646;51.910;7.724;2022-12-07T00:11:42;15.82;;;12.07;;
39264;SDS011;42646;51.910;7.724;2022-12-07T00:14:12;13.43;;;11.23;;
39264;SDS011;42646;51.910;7.724;2022-12-07T00:16:42;13.68;;;10.98;;
39264;SDS011;42646;51.910;7.724;2022-12-07T00:19:38;12.93;;;11.35;;
39264;SDS011;42646;51.910;7.724;2022-12-07T00:22:06;13.98;;;10.43;;
39264;SDS011;42646;51.910;7.724;2022-12-07T00:24:34;13.73;;;11.02;;
39264;SDS011;42646;51.910;7.724;2022-12-07T00:27:01;11.93;;;9.98;;
39264;SDS011;42646;51.910;7.724;2022-12-07T00:29:29;11.65;;;9.55;;
39264;SDS011;42646;51.910;7.724;2022-12-07T00:32:21;12.95;;;10.25;;
39264;SDS011;42646;51.910;7.724;2022-12-07T00:34:50;12.40;;;9.82;;
39264;SDS011;42646;51.910;7.724;2022-12-07T00:37:18;13.45;;;10.23;;
39264;SDS011;42646;51.910;7.724;2022-12-07T00:39:46;12.88;;;9.98;;
39264;SDS011;42646;51.910;7.724;2022-12-07T00:42:13;12.20;;;9.93;;
39264;SDS011;42646;51.910;7.724;2022-12-07T00:44:41;11.60;;;9.30;;
39264;SDS011;42646;51.910;7.724;2022-12-07T00:47:09;11.63;;;9.52;;
39264;SDS011;42646;51.910;7.724;2022-12-07T00:49:36;12.52;;;9.57;;
39264;SDS011;42646;51.910;7.724;2022-12-07T00:52:05;10.93;;;9.23;;
39264;SDS011;42646;51.910;7.724;2022-12-07T00:54:33;12.55;;;10.02;;
39264;SDS011;42646;51.910;7.724;2022-12-07T00:57:01;12.82;;;9.10;;
39264;SDS011;42646;51.910;7.724;2022-12-07T00:59:28;11.60;;;9.32;;
39264;SDS011;42646;51.910;7.724;2022-12-07T01:01:56;13.45;;;9.77;;
39264;SDS011;42646;51.910;7.724;2022-12-07T01:04:24;11.75;;;9.43;;
39264;SDS011;42646;51.910;7.724;2022-12-07T01:06:51;11.80;;;9.13;;
39264;SDS011;42646;51.910;7.724;2022-12-07T01:09:20;10.38;;;9.07;;
39264;SDS011;42646;51.910;7.724;2022-12-07T01:11:48;11.30;;;9.02;;
39264;SDS011;42646;51.910;7.724;2022-12-07T01:14:16;11.02;;;8.90;;
39264;SDS011;42646;51.910;7.724;2022-12-07T01:16:44;11.38;;;8.82;;
39264;SDS011;42646;51.910;7.724;2022-12-07T01:19:12;11.32;;;9.30;;
39264;SDS011;42646;51.910;7.724;2022-12-07T01:21:39;10.93;;;8.77;;
39264;SDS011;42646;51.910;7.724;2022-12-07T01:24:09;12.48;;;8.77;;
39264;SDS011;42646;51.910;7.724;2022-12-07T01:26:42;11.65;;;8.85;;
39264;SDS011;42646;51.910;7.724;2022-12-07T01:29:09;11.48;;;8.80;;
39264;SDS011;42646;51.910;7.724;2022-12-07T01:31:37;14.38;;;9.15;;
39264;SDS011;42646;51.910;7.724;2022-12-07T01:34:05;10.45;;;8.30;;
39264;SDS011;42646;51.910;7.724;2022-12-07T01:36:34;12.88;;;8.45;;
39264;SDS011;42646;51.910;7.724;2022-12-07T01:39:04;10.18;;;8.15;;
39264;SDS011;42646;51.910;7.724;2022-12-07T01:41:36;10.13;;;8.00;;
39264;SDS011;42646;51.910;7.724;2022-12-07T01:46:58;11.07;;;7.88;;
39264;SDS011;42646;51.910;7.724;2022-12-07T01:49:29;10.00;;;7.90;;
39264;SDS011;42646;51.910;7.724;2022-12-07T01:52:04;11.45;;;8.38;;
39264;SDS011;42646;51.910;7.724;2022-12-07T01:54:40;11.68;;;8.02;;
39264;SDS011;42646;51.910;7.724;2022-12-07T01:57:09;11.10;;;8.95;;
39264;SDS011;42646;51.910;7.724;2022-12-07T01:59:40;11.05;;;9.00;;
39264;SDS011;42646;51.910;7.724;2022-12-07T02:02:12;11.18;;;8.80;;
39264;SDS011;42646;51.910;7.724;2022-12-07T02:04:48;11.60;;;8.65;;
39264;SDS011;42646;51.910;7.724;2022-12-07T02:07:43;11.48;;;8.68;;
39264;SDS011;42646;51.910;7.724;2022-12-07T02:10:14;11.10;;;8.80;;
39264;SDS011;42646;51.910;7.724;2022-12-07T02:12:43;13.75;;;9.38;;
39264;SDS011;42646;51.910;7.724;2022-12-07T02:15:17;14.05;;;9.23;;
39264;SDS011;42646;51.910;7.724;2022-12-07T02:17:54;10.70;;;8.23;;
39264;SDS011;42646;51.910;7.724;2022-12-07T02:20:30;10.52;;;8.32;;
39264;SDS011;42646;51.910;7.724;2022-12-07T02:23:30;14.23;;;8.80;;
39264;SDS011;42646;51.910;7.724;2022-12-07T02:26:19;11.18;;;8.50;;
39264;SDS011;42646;51.910;7.724;2022-12-07T02:29:11;10.32;;;8.00;;
39264;SDS011;42646;51.910;7.724;2022-12-07T02:31:45;10.63;;;7.90;;
39264;SDS011;42646;51.910;7.724;2022-12-07T02:34:20;11.35;;;8.10;;
39264;SDS011;42646;51.910;7.724;2022-12-07T02:36:55;13.25;;;8.82;;
39264;SDS011;42646;51.910;7.724;2022-12-07T02:39:28;12.02;;;8.85;;
39264;SDS011;42646;51.910;7.724;2022-12-07T02:42:07;11.38;;;8.32;;
39264;SDS011;42646;51.910;7.724;2022-12-07T02:44:43;10.90;;;8.32;;
39264;SDS011;42646;51.910;7.724;2022-12-07T02:47:13;12.20;;;8.60;;
39264;SDS011;42646;51.910;7.724;2022-12-07T02:52:38;12.02;;;8.43;;
39264;SDS011;42646;51.910;7.724;2022-12-07T02:55:10;13.47;;;9.73;;
39264;SDS011;42646;51.910;7.724;2022-12-07T02:57:44;11.90;;;8.95;;
39264;SDS011;42646;51.910;7.724;2022-12-07T03:00:25;13.52;;;9.02;;
39264;SDS011;42646;51.910;7.724;2022-12-07T03:02:54;13.15;;;9.57;;
39264;SDS011;42646;51.910;7.724;2022-12-07T03:05:31;11.90;;;9.13;;
39264;SDS011;42646;51.910;7.724;2022-12-07T03:08:12;12.63;;;9.63;;
39264;SDS011;42646;51.910;7.724;2022-12-07T03:10:48;12.98;;;8.95;;
39264;SDS011;42646;51.910;7.724;2022-12-07T03:13:25;12.32;;;8.80;;
39264;SDS011;42646;51.910;7.724;2022-12-07T03:16:03;11.93;;;8.90;;
39264;SDS011;42646;51.910;7.724;2022-12-07T03:18:37;12.48;;;9.18;;
39264;SDS011;42646;51.910;7.724;2022-12-07T03:21:14;16.13;;;10.00;;
39264;SDS011;42646;51.910;7.724;2022-12-07T03:23:45;14.23;;;10.30;;
39264;SDS011;42646;51.910;7.724;2022-12-07T03:26:18;12.98;;;10.00;;
39264;SDS011;42646;51.910;7.724;2022-12-07T03:28:52;13.43;;;9.50;;
39264;SDS011;42646;51.910;7.724;2022-12-07T03:31:24;14.52;;;10.50;;
39264;SDS011;42646;51.910;7.724;2022-12-07T03:33:58;13.00;;;9.98;;
39264;SDS011;42646;51.910;7.724;2022-12-07T03:36:34;14.82;;;10.48;;
39264;SDS011;42646;51.910;7.724;2022-12-07T03:39:11;15.27;;;10.07;;
39264;SDS011;42646;51.910;7.724;2022-12-07T03:41:45;12.80;;;9.65;;
39264;SDS011;42646;51.910;7.724;2022-12-07T03:44:13;14.25;;;10.00;;
39264;SDS011;42646;51.910;7.724;2022-12-07T03:46:47;12.77;;;10.15;;
39264;SDS011;42646;51.910;7.724;2022-12-07T03:49:27;14.25;;;10.18;;
39264;SDS011;42646;51.910;7.724;2022-12-07T03:52:02;14.77;;;9.88;;
39264;SDS011;42646;51.910;7.724;2022-12-07T03:54:38;13.75;;;9.85;;
39264;SDS011;42646;51.910;7.724;2022-12-07T03:59:45;12.23;;;8.82;;
39264;SDS011;42646;51.910;7.724;2022-12-07T04:02:16;14.23;;;10.02;;
39264;SDS011;42646;51.910;7.724;2022-12-07T04:04:44;11.57;;;9.45;;
39264;SDS011;42646;51.910;7.724;2022-12-07T04:07:12;13.10;;;9.50;;
39264;SDS011;42646;51.910;7.724;2022-12-07T04:09:40;15.02;;;9.40;;
39264;SDS011;42646;51.910;7.724;2022-12-07T04:12:08;13.07;;;9.13;;
39264;SDS011;42646;51.910;7.724;2022-12-07T04:14:36;13.73;;;9.68;;
39264;SDS011;42646;51.910;7.724;2022-12-07T04:17:04;14.32;;;8.98;;
39264;SDS011;42646;51.910;7.724;2022-12-07T04:19:34;17.15;;;10.20;;
39264;SDS011;42646;51.910;7.724;2022-12-07T04:22:03;12.90;;;9.73;;
39264;SDS011;42646;51.910;7.724;2022-12-07T04:24:32;13.30;;;9.73;;
39264;SDS011;42646;51.910;7.724;2022-12-07T04:27:00;13.07;;;9.65;;
39264;SDS011;42646;51.910;7.724;2022-12-07T04:29:28;13.02;;;9.38;;
39264;SDS011;42646;51.910;7.724;2022-12-07T04:31:56;15.43;;;10.90;;
39264;SDS011;42646;51.910;7.724;2022-12-07T04:34:26;15.80;;;10.18;;
39264;SDS011;42646;51.910;7.724;2022-12-07T04:36:56;14.82;;;10.05;;
39264;SDS011;42646;51.910;7.724;2022-12-07T04:39:24;19.80;;;10.60;;
39264;SDS011;42646;51.910;7.724;2022-12-07T04:41:53;15.45;;;9.73;;
39264;SDS011;42646;51.910;7.724;2022-12-07T04:44:22;13.30;;;9.00;;
39264;SDS011;42646;51.910;7.724;2022-12-07T04:46:52;13.25;;;9.35;;
39264;SDS011;42646;51.910;7.724;2022-12-07T04:49:20;13.82;;;9.07;;
39264;SDS011;42646;51.910;7.724;2022-12-07T04:51:48;13.35;;;8.93;;
39264;SDS011;42646;51.910;7.724;2022-12-07T04:54:17;12.00;;;8.73;;
39264;SDS011;42646;51.910;7.724;2022-12-07T04:56:45;12.88;;;8.70;;
39264;SDS011;42646;51.910;7.724;2022-12-07T04:59:13;14.15;;;8.55;;
39264;SDS011;42646;51.910;7.724;2022-12-07T05:01:41;12.65;;;8.43;;
39264;SDS011;42646;51.910;7.724;2022-12-07T05:04:09;13.55;;;8.27;;
39264;SDS011;42646;51.910;7.724;2022-12-07T05:06:38;12.07;;;8.20;;
39264;SDS011;42646;51.910;7.724;2022-12-07T05:09:07;13.52;;;8.10;;
39264;SDS011;42646;51.910;7.724;2022-12-07T05:11:37;11.65;;;8.02;;
39264;SDS011;42646;51.910;7.724;2022-12-07T05:14:06;10.93;;;7.55;;
39264;SDS011;42646;51.910;7.724;2022-12-07T05:16:41;10.83;;;6.80;;
39264;SDS011;42646;51.910;7.724;2022-12-07T05:19:10;10.93;;;7.22;;
39264;SDS011;42646;51.910;7.724;2022-12-07T05:21:38;12.07;;;7.22;;
39264;SDS011;42646;51.910;7.724;2022-12-07T05:24:08;12.10;;;7.40;;
39264;SDS011;42646;51.910;7.724;2022-12-07T05:26:40;12.07;;;7.38;;
39264;SDS011;42646;51.910;7.724;2022-12-07T05:29:10;11.25;;;7.07;;
39264;SDS011;42646;51.910;7.724;2022-12-07T05:34:09;11.23;;;6.97;;
39264;SDS011;42646;51.910;7.724;2022-12-07T05:36:36;12.07;;;7.35;;
39264;SDS011;42646;51.910;7.724;2022-12-07T05:39:04;11.27;;;7.13;;
39264;SDS011;42646;51.910;7.724;2022-12-07T05:41:32;10.20;;;6.57;;
39264;SDS011;42646;51.910;7.724;2022-12-07T05:44:18;13.07;;;6.93;;
39264;SDS011;42646;51.910;7.724;2022-12-07T05:46:46;12.13;;;7.57;;
39264;SDS011;42646;51.910;7.724;2022-12-07T05:49:15;12.55;;;7.25;;
39264;SDS011;42646;51.910;7.724;2022-12-07T05:51:43;11.50;;;6.93;;
39264;SDS011;42646;51.910;7.724;2022-12-07T05:54:11;10.63;;;6.60;;
39264;SDS011;42646;51.910;7.724;2022-12-07T05:56:39;11.13;;;6.70;;
39264;SDS011;42646;51.910;7.724;2022-12-07T05:59:07;10.07;;;6.28;;
39264;SDS011;42646;51.910;7.724;2022-12-07T06:01:55;10.63;;;6.55;;
39264;SDS011;42646;51.910;7.724;2022-12-07T06:04:27;11.30;;;6.15;;
39264;SDS011;42646;51.910;7.724;2022-12-07T06:07:00;10.32;;;6.03;;
39264;SDS011;42646;51.910;7.724;2022-12-07T06:09:52;9.63;;;5.50;;
39264;SDS011;42646;51.910;7.724;2022-12-07T06:12:21;9.00;;;6.15;;
39264;SDS011;42646;51.910;7.724;2022-12-07T06:15:02;9.18;;;5.40;;
39264;SDS011;42646;51.910;7.724;2022-12-07T06:17:31;10.95;;;5.30;;
39264;SDS011;42646;51.910;7.724;2022-12-07T06:19:59;11.30;;;5.47;;
39264;SDS011;42646;51.910;7.724;2022-12-07T06:22:51;7.80;;;5.03;;
39264;SDS011;42646;51.910;7.724;2022-12-07T06:25:21;9.50;;;5.38;;
39264;SDS011;42646;51.910;7.724;2022-12-07T06:27:49;11.75;;;5.22;;
39264;SDS011;42646;51.910;7.724;2022-12-07T06:30:17;7.88;;;4.00;;
39264;SDS011;42646;51.910;7.724;2022-12-07T06:33:12;9.45;;;4.60;;
39264;SDS011;42646;51.910;7.724;2022-12-07T06:35:39;7.10;;;4.38;;
39264;SDS011;42646;51.910;7.724;2022-12-07T06:38:07;10.02;;;4.80;;
39264;SDS011;42646;51.910;7.724;2022-12-07T06:40:34;9.20;;;5.30;;
39264;SDS011;42646;51.910;7.724;2022-12-07T06:43:02;10.20;;;5.32;;
39264;SDS011;42646;51.910;7.724;2022-12-07T06:45:34;7.53;;;4.43;;
39264;SDS011;42646;51.910;7.724;2022-12-07T06:48:02;10.45;;;4.80;;
39264;SDS011;42646;51.910;7.724;2022-12-07T06:50:31;8.45;;;4.40;;
39264;SDS011;42646;51.910;7.724;2022-12-07T06:52:59;8.20;;;5.10;;
39264;SDS011;42646;51.910;7.724;2022-12-07T06:55:27;7.82;;;4.72;;
39264;SDS011;42646;51.910;7.724;2022-12-07T06:57:54;8.98;;;4.63;;
39264;SDS011;42646;51.910;7.724;2022-12-07T07:00:23;9.13;;;4.65;;
39264;SDS011;42646;51.910;7.724;2022-12-07T07:02:50;6.93;;;4.10;;
39264;SDS011;42646;51.910;7.724;2022-12-07T07:05:20;7.50;;;4.63;;
39264;SDS011;42646;51.910;7.724;2022-12-07T07:07:51;7.43;;;4.35;;
39264;SDS011;42646;51.910;7.724;2022-12-07T07:10:42;8.52;;;4.50;;
39264;SDS011;42646;51.910;7.724;2022-12-07T07:13:11;9.75;;;4.13;;
39264;SDS011;42646;51.910;7.724;2022-12-07T07:15:39;9.45;;;4.40;;
39264;SDS011;42646;51.910;7.724;2022-12-07T07:18:07;7.13;;;4.38;;
39264;SDS011;42646;51.910;7.724;2022-12-07T07:20:36;7.90;;;4.80;;
39264;SDS011;42646;51.910;7.724;2022-12-07T07:23:07;7.90;;;4.65;;
39264;SDS011;42646;51.910;7.724;2022-12-07T07:25:35;9.27;;;4.85;;
39264;SDS011;42646;51.910;7.724;2022-12-07T07:28:04;8.20;;;4.85;;
39264;SDS011;42646;51.910;7.724;2022-12-07T07:30:32;8.30;;;4.80;;
39264;SDS011;42646;51.910;7.724;2022-12-07T07:33:02;8.10;;;5.00;;
39264;SDS011;42646;51.910;7.724;2022-12-07T07:35:31;8.90;;;5.60;;
39264;SDS011;42646;51.910;7.724;2022-12-07T07:38:00;8.50;;;5.18;;
39264;SDS011;42646;51.910;7.724;2022-12-07T07:40:30;10.30;;;5.00;;
39264;SDS011;42646;51.910;7.724;2022-12-07T07:42:58;9.82;;;5.38;;
39264;SDS011;42646;51.910;7.724;2022-12-07T07:45:26;9.80;;;5.20;;
39264;SDS011;42646;51.910;7.724;2022-12-07T07:47:58;10.63;;;5.03;;
39264;SDS011;42646;51.910;7.724;2022-12-07T07:50:26;8.57;;;5.25;;
39264;SDS011;42646;51.910;7.724;2022-12-07T07:52:54;9.00;;;4.80;;
39264;SDS011;42646;51.910;7.724;2022-12-07T07:55:22;9.30;;;4.90;;
39264;SDS011;42646;51.910;7.724;2022-12-07T07:57:51;10.02;;;4.82;;
39264;SDS011;42646;51.910;7.724;2022-12-07T08:00:20;9.93;;;5.05;;
39264;SDS011;42646;51.910;7.724;2022-12-07T08:02:50;12.52;;;4.65;;
39264;SDS011;42646;51.910;7.724;2022-12-07T08:05:18;9.25;;;5.07;;
39264;SDS011;42646;51.910;7.724;2022-12-07T08:07:46;8.95;;;4.50;;
39264;SDS011;42646;51.910;7.724;2022-12-07T08:10:13;8.27;;;4.93;;
39264;SDS011;42646;51.910;7.724;2022-12-07T08:12:48;8.43;;;4.47;;
39264;SDS011;42646;51.910;7.724;2022-12-07T08:15:37;8.75;;;4.28;;
39264;SDS011;42646;51.910;7.724;2022-12-07T08:18:06;8.65;;;4.60;;
39264;SDS011;42646;51.910;7.724;2022-12-07T08:20:35;9.13;;;4.65;;
39264;SDS011;42646;51.910;7.724;2022-12-07T08:23:06;9.30;;;4.53;;
39264;SDS011;42646;51.910;7.724;2022-12-07T08:25:36;8.03;;;4.47;;
39264;SDS011;42646;51.910;7.724;2022-12-07T08:28:04;7.97;;;4.03;;
39264;SDS011;42646;51.910;7.724;2022-12-07T08:30:32;10.43;;;4.85;;
39264;SDS011;42646;51.910;7.724;2022-12-07T08:33:03;9.07;;;4.50;;
39264;SDS011;42646;51.910;7.724;2022-12-07T08:35:32;8.68;;;4.45;;
39264;SDS011;42646;51.910;7.724;2022-12-07T08:38:00;9.07;;;4.60;;
39264;SDS011;42646;51.910;7.724;2022-12-07T08:40:28;7.97;;;3.97;;
39264;SDS011;42646;51.910;7.724;2022-12-07T08:42:56;10.38;;;4.85;;
39264;SDS011;42646;51.910;7.724;2022-12-07T08:45:24;8.38;;;4.85;;
39264;SDS011;42646;51.910;7.724;2022-12-07T08:47:55;7.97;;;4.50;;
39264;SDS011;42646;51.910;7.724;2022-12-07T08:50:29;7.97;;;4.70;;
39264;SDS011;42646;51.910;7.724;2022-12-07T08:52:59;9.32;;;4.88;;
39264;SDS011;42646;51.910;7.724;2022-12-07T08:55:28;9.15;;;4.38;;
39264;SDS011;42646;51.910;7.724;2022-12-07T08:57:57;8.45;;;4.53;;
39264;SDS011;42646;51.910;7.724;2022-12-07T09:00:25;7.88;;;5.05;;
39264;SDS011;42646;51.910;7.724;2022-12-07T09:02:54;9.15;;;4.28;;
39264;SDS011;42646;51.910;7.724;2022-12-07T09:05:22;9.05;;;4.72;;
39264;SDS011;42646;51.910;7.724;2022-12-07T09:07:52;9.20;;;4.57;;
39264;SDS011;42646;51.910;7.724;2022-12-07T09:10:25;8.43;;;4.53;;
39264;SDS011;42646;51.910;7.724;2022-12-07T09:12:53;10.57;;;4.78;;
39264;SDS011;42646;51.910;7.724;2022-12-07T09:15:20;7.38;;;4.25;;
39264;SDS011;42646;51.910;7.724;2022-12-07T09:17:48;8.85;;;4.60;;
39264;SDS011;42646;51.910;7.724;2022-12-07T09:20:16;9.05;;;4.63;;
39264;SDS011;42646;51.910;7.724;2022-12-07T09:22:56;10.43;;;4.75;;
39264;SDS011;42646;51.910;7.724;2022-12-07T09:25:23;8.07;;;4.30;;
39264;SDS011;42646;51.910;7.724;2022-12-07T09:28:16;8.30;;;4.38;;
39264;SDS011;42646;51.910;7.724;2022-12-07T09:30:45;9.55;;;4.32;;
39264;SDS011;42646;51.910;7.724;2022-12-07T09:33:34;9.75;;;4.75;;
39264;SDS011;42646;51.910;7.724;2022-12-07T09:36:03;7.47;;;3.75;;
39264;SDS011;42646;51.910;7.724;2022-12-07T09:38:32;9.77;;;4.55;;
39264;SDS011;42646;51.910;7.724;2022-12-07T09:41:04;11.05;;;4.40;;
39264;SDS011;42646;51.910;7.724;2022-12-07T09:43:33;8.10;;;4.78;;
39264;SDS011;42646;51.910;7.724;2022-12-07T09:46:04;12.38;;;4.10;;
39264;SDS011;42646;51.910;7.724;2022-12-07T09:48:33;9.25;;;4.18;;
39264;SDS011;42646;51.910;7.724;2022-12-07T09:51:09;9.52;;;4.18;;
39264;SDS011;42646;51.910;7.724;2022-12-07T09:53:50;8.02;;;3.90;;
39264;SDS011;42646;51.910;7.724;2022-12-07T09:58:58;8.98;;;3.97;;
39264;SDS011;42646;51.910;7.724;2022-12-07T10:01:28;9.15;;;4.53;;
39264;SDS011;42646;51.910;7.724;2022-12-07T10:04:00;8.88;;;3.80;;
39264;SDS011;42646;51.910;7.724;2022-12-07T10:06:41;7.07;;;4.30;;
39264;SDS011;42646;51.910;7.724;2022-12-07T10:09:11;8.25;;;4.18;;
39264;SDS011;42646;51.910;7.724;2022-12-07T10:11:58;9.27;;;4.70;;
39264;SDS011;42646;51.910;7.724;2022-12-07T10:14:31;7.97;;;4.13;;
39264;SDS011;42646;51.910;7.724;2022-12-07T10:17:28;8.43;;;4.25;;
39264;SDS011;42646;51.910;7.724;2022-12-07T10:20:11;12.38;;;4.40;;
39264;SDS011;42646;51.910;7.724;2022-12-07T10:22:59;9.00;;;3.97;;
39264;SDS011;42646;51.910;7.724;2022-12-07T10:25:31;8.20;;;4.35;;
39264;SDS011;42646;51.910;7.724;2022-12-07T10:28:01;11.23;;;4.75;;
39264;SDS011;42646;51.910;7.724;2022-12-07T10:30:48;10.32;;;5.00;;
39264;SDS011;42646;51.910;7.724;2022-12-07T10:33:28;8.52;;;4.05;;
39264;SDS011;42646;51.910;7.724;2022-12-07T10:35:58;8.98;;;4.10;;
39264;SDS011;42646;51.910;7.724;2022-12-07T10:38:27;8.73;;;4.30;;
39264;SDS011;42646;51.910;7.724;2022-12-07T10:41:05;9.73;;;4.93;;
39264;SDS011;42646;51.910;7.724;2022-12-07T10:43:34;7.03;;;4.00;;
39264;SDS011;42646;51.910;7.724;2022-12-07T10:46:40;8.98;;;4.57;;
39264;SDS011;42646;51.910;7.724;2022-12-07T10:49:38;7.03;;;3.72;;
39264;SDS011;42646;51.910;7.724;2022-12-07T10:52:35;8.65;;;4.13;;
39264;SDS011;42646;51.910;7.724;2022-12-07T10:55:18;9.18;;;4.10;;
39264;SDS011;42646;51.910;7.724;2022-12-07T10:58:19;8.10;;;4.22;;
39264;SDS011;42646;51.910;7.724;2022-12-07T11:01:01;7.38;;;4.57;;
39264;SDS011;42646;51.910;7.724;2022-12-07T11:03:43;9.93;;;4.20;;
39264;SDS011;42646;51.910;7.724;2022-12-07T11:06:24;8.32;;;3.83;;
39264;SDS011;42646;51.910;7.724;2022-12-07T11:09:04;6.95;;;3.95;;
39264;SDS011;42646;51.910;7.724;2022-12-07T11:12:13;9.27;;;4.03;;
39264;SDS011;42646;51.910;7.724;2022-12-07T11:14:51;10.13;;;4.05;;
39264;SDS011;42646;51.910;7.724;2022-12-07T11:17:26;10.00;;;4.00;;
39264;SDS011;42646;51.910;7.724;2022-12-07T11:20:05;7.63;;;3.67;;
39264;SDS011;42646;51.910;7.724;2022-12-07T11:22:45;8.55;;;3.58;;
39264;SDS011;42646;51.910;7.724;2022-12-07T11:25:21;8.90;;;3.20;;
39264;SDS011;42646;51.910;7.724;2022-12-07T11:28:03;8.10;;;3.22;;
39264;SDS011;42646;51.910;7.724;2022-12-07T11:30:50;6.78;;;3.10;;
39264;SDS011;42646;51.910;7.724;2022-12-07T11:33:26;7.55;;;3.28;;
39264;SDS011;42646;51.910;7.724;2022-12-07T11:36:01;7.57;;;3.30;;
39264;SDS011;42646;51.910;7.724;2022-12-07T11:38:37;7.72;;;3.13;;
39264;SDS011;42646;51.910;7.724;2022-12-07T11:41:11;7.38;;;3.00;;
39264;SDS011;42646;51.910;7.724;2022-12-07T11:43:45;8.43;;;2.90;;
39264;SDS011;42646;51.910;7.724;2022-12-07T11:46:27;8.60;;;3.38;;
39264;SDS011;42646;51.910;7.724;2022-12-07T11:49:08;7.68;;;3.17;;
39264;SDS011;42646;51.910;7.724;2022-12-07T11:51:41;6.47;;;3.03;;
39264;SDS011;42646;51.910;7.724;2022-12-07T11:54:14;12.27;;;4.43;;
39264;SDS011;42646;51.910;7.724;2022-12-07T11:56:45;8.43;;;3.03;;
39264;SDS011;42646;51.910;7.724;2022-12-07T11:59:17;6.57;;;3.00;;
39264;SDS011;42646;51.910;7.724;2022-12-07T12:02:18;10.05;;;3.05;;
39264;SDS011;42646;51.910;7.724;2022-12-07T12:04:52;6.15;;;2.67;;
39264;SDS011;42646;51.910;7.724;2022-12-07T12:10:14;7.32;;;3.00;;
39264;SDS011;42646;51.910;7.724;2022-12-07T12:12:54;7.10;;;2.92;;
39264;SDS011;42646;51.910;7.724;2022-12-07T12:16:01;11.32;;;3.83;;
39264;SDS011;42646;51.910;7.724;2022-12-07T12:18:42;7.53;;;2.67;;
39264;SDS011;42646;51.910;7.724;2022-12-07T12:21:26;7.32;;;2.70;;
39264;SDS011;42646;51.910;7.724;2022-12-07T12:26:27;7.00;;;2.72;;
39264;SDS011;42646;51.910;7.724;2022-12-07T12:28:59;7.30;;;3.30;;
39264;SDS011;42646;51.910;7.724;2022-12-07T12:31:34;7.97;;;2.70;;
39264;SDS011;42646;51.910;7.724;2022-12-07T12:37:00;7.50;;;2.70;;
39264;SDS011;42646;51.910;7.724;2022-12-07T12:39:30;5.38;;;2.50;;
39264;SDS011;42646;51.910;7.724;2022-12-07T12:41:59;9.10;;;2.67;;
39264;SDS011;42646;51.910;7.724;2022-12-07T12:44:40;6.93;;;2.67;;
39264;SDS011;42646;51.910;7.724;2022-12-07T12:47:40;7.50;;;2.45;;
39264;SDS011;42646;51.910;7.724;2022-12-07T12:50:15;6.97;;;2.80;;
39264;SDS011;42646;51.910;7.724;2022-12-07T12:52:51;5.65;;;2.50;;
39264;SDS011;42646;51.910;7.724;2022-12-07T13:01:49;6.80;;;2.60;;
39264;SDS011;42646;51.910;7.724;2022-12-07T13:04:30;9.02;;;2.30;;
39264;SDS011;42646;51.910;7.724;2022-12-07T13:10:25;6.90;;;2.40;;
39264;SDS011;42646;51.910;7.724;2022-12-07T13:13:28;7.55;;;2.30;;
39264;SDS011;42646;51.910;7.724;2022-12-07T13:18:45;6.15;;;2.40;;
39264;SDS011;42646;51.910;7.724;2022-12-07T13:21:41;5.38;;;2.28;;
39264;SDS011;42646;51.910;7.724;2022-12-07T13:24:12;7.70;;;2.70;;
39264;SDS011;42646;51.910;7.724;2022-12-07T13:26:41;7.32;;;2.50;;
39264;SDS011;42646;51.910;7.724;2022-12-07T13:29:15;8.52;;;2.90;;
39264;SDS011;42646;51.910;7.724;2022-12-07T13:31:46;6.63;;;2.58;;
39264;SDS011;42646;51.910;7.724;2022-12-07T13:34:28;5.22;;;2.55;;
39264;SDS011;42646;51.910;7.724;2022-12-07T13:36:57;5.57;;;2.03;;
39264;SDS011;42646;51.910;7.724;2022-12-07T13:39:29;4.18;;;2.08;;
39264;SDS011;42646;51.910;7.724;2022-12-07T13:41:59;8.07;;;3.10;;
39264;SDS011;42646;51.910;7.724;2022-12-07T13:44:39;7.28;;;2.50;;
39264;SDS011;42646;51.910;7.724;2022-12-07T13:47:10;6.18;;;2.55;;
39264;SDS011;42646;51.910;7.724;2022-12-07T13:49:46;6.05;;;2.47;;
39264;SDS011;42646;51.910;7.724;2022-12-07T13:52:20;6.85;;;2.42;;
39264;SDS011;42646;51.910;7.724;2022-12-07T13:54:56;7.22;;;2.10;;
39264;SDS011;42646;51.910;7.724;2022-12-07T13:57:27;5.10;;;2.17;;
39264;SDS011;42646;51.910;7.724;2022-12-07T13:59:57;8.10;;;2.58;;
39264;SDS011;42646;51.910;7.724;2022-12-07T14:02:26;6.70;;;2.40;;
39264;SDS011;42646;51.910;7.724;2022-12-07T14:05:07;5.22;;;2.10;;
39264;SDS011;42646;51.910;7.724;2022-12-07T14:07:48;5.63;;;2.38;;
39264;SDS011;42646;51.910;7.724;2022-12-07T14:10:25;8.50;;;2.50;;
39264;SDS011;42646;51.910;7.724;2022-12-07T14:12:56;4.50;;;2.10;;
39264;SDS011;42646;51.910;7.724;2022-12-07T14:15:27;5.63;;;2.20;;
39264;SDS011;42646;51.910;7.724;2022-12-07T14:17:57;6.80;;;2.47;;
39264;SDS011;42646;51.910;7.724;2022-12-07T14:20:30;7.57;;;2.10;;
39264;SDS011;42646;51.910;7.724;2022-12-07T14:22:59;5.53;;;2.35;;
39264;SDS011;42646;51.910;7.724;2022-12-07T14:25:45;6.45;;;2.20;;
39264;SDS011;42646;51.910;7.724;2022-12-07T14:28:26;7.00;;;2.10;;
39264;SDS011;42646;51.910;7.724;2022-12-07T14:30:55;7.22;;;2.35;;
39264;SDS011;42646;51.910;7.724;2022-12-07T14:33:27;5.30;;;2.22;;
39264;SDS011;42646;51.910;7.724;2022-12-07T14:35:57;8.73;;;2.35;;
39264;SDS011;42646;51.910;7.724;2022-12-07T14:38:26;7.32;;;1.98;;
39264;SDS011;42646;51.910;7.724;2022-12-07T14:40:56;6.70;;;2.15;;
39264;SDS011;42646;51.910;7.724;2022-12-07T14:43:45;8.40;;;2.22;;
39264;SDS011;42646;51.910;7.724;2022-12-07T14:46:36;7.03;;;2.20;;
39264;SDS011;42646;51.910;7.724;2022-12-07T14:49:04;6.90;;;2.22;;
39264;SDS011;42646;51.910;7.724;2022-12-07T14:51:52;8.88;;;2.20;;
39264;SDS011;42646;51.910;7.724;2022-12-07T14:54:40;6.47;;;1.88;;
39264;SDS011;42646;51.910;7.724;2022-12-07T14:57:10;5.03;;;1.70;;
39264;SDS011;42646;51.910;7.724;2022-12-07T14:59:38;6.05;;;2.00;;
39264;SDS011;42646;51.910;7.724;2022-12-07T15:02:11;6.63;;;1.70;;
39264;SDS011;42646;51.910;7.724;2022-12-07T15:04:40;6.70;;;2.00;;
39264;SDS011;42646;51.910;7.724;2022-12-07T15:07:10;4.63;;;1.80;;
39264;SDS011;42646;51.910;7.724;2022-12-07T15:09:42;5.15;;;1.50;;
39264;SDS011;42646;51.910;7.724;2022-12-07T15:12:11;5.78;;;1.60;;
39264;SDS011;42646;51.910;7.724;2022-12-07T15:14:38;4.68;;;1.90;;
39264;SDS011;42646;51.910;7.724;2022-12-07T15:17:09;5.55;;;1.58;;
39264;SDS011;42646;51.910;7.724;2022-12-07T15:19:53;7.25;;;2.13;;
39264;SDS011;42646;51.910;7.724;2022-12-07T15:22:21;5.40;;;2.08;;
39264;SDS011;42646;51.910;7.724;2022-12-07T15:24:49;5.28;;;1.88;;
39264;SDS011;42646;51.910;7.724;2022-12-07T15:27:19;4.30;;;1.75;;
39264;SDS011;42646;51.910;7.724;2022-12-07T15:29:47;4.13;;;1.90;;
39264;SDS011;42646;51.910;7.724;2022-12-07T15:32:15;6.20;;;2.00;;
39264;SDS011;42646;51.910;7.724;2022-12-07T15:34:44;5.22;;;2.00;;
39264;SDS011;42646;51.910;7.724;2022-12-07T15:37:11;5.18;;;2.03;;
39264;SDS011;42646;51.910;7.724;2022-12-07T15:39:39;6.53;;;1.85;;
39264;SDS011;42646;51.910;7.724;2022-12-07T15:42:10;5.33;;;1.83;;
39264;SDS011;42646;51.910;7.724;2022-12-07T15:44:39;5.70;;;2.00;;
39264;SDS011;42646;51.910;7.724;2022-12-07T15:47:25;4.72;;;1.80;;
39264;SDS011;42646;51.910;7.724;2022-12-07T15:49:54;5.28;;;1.90;;
39264;SDS011;42646;51.910;7.724;2022-12-07T15:52:22;5.57;;;1.88;;